Time;durP1;ratioP1;P1;durP2;ratioP2;P2;SDS_P1;SDS_P2;PMS_P1;PMS_P2;Temp;Humidity;BMP_temperature;BMP_pressure;BME280_temperature;BME280_humidity;BME280_pressure;Samples;Min_cycle;Max_cycle;Signal;HPM_P1;HPM_P2
2023/05/16 00:02:08;;;;;;;13.02;3.10;;;;;;;11.13;70.94;101653.09;3613483;39;20070;-66
2023/05/16 00:04:35;;;;;;;12.40;3.20;;;;;;;11.04;70.85;101642.84;3613090;39;20047;-67
2023/05/16 00:07:01;;;;;;;12.90;3.20;;;;;;;11.07;70.67;101658.81;3612882;39;20090;-67
2023/05/16 00:09:26;;;;;;;12.23;3.33;;;;;;;11.04;71.10;101659.84;3614130;39;20073;-67
2023/05/16 00:11:52;;;;;;;19.58;3.92;;;;;;;11.01;70.36;101659.13;3613911;39;20296;-67
2023/05/16 00:14:18;;;;;;;14.02;3.58;;;;;;;10.90;70.96;101651.56;3614457;39;20050;-67
2023/05/16 00:16:44;;;;;;;11.55;3.25;;;;;;;10.99;70.67;101663.72;3613960;39;20057;-68
2023/05/16 00:19:10;;;;;;;16.33;3.25;;;;;;;10.90;70.80;101663.22;3611574;39;20732;-68
2023/05/16 00:21:35;;;;;;;14.73;3.50;;;;;;;10.68;70.80;101632.94;3613519;39;20123;-68
2023/05/16 00:24:03;;;;;;;15.70;3.38;;;;;;;10.81;71.15;101669.03;3615535;39;20071;-67
2023/05/16 00:26:29;;;;;;;15.48;3.38;;;;;;;10.76;70.76;101660.34;3617865;39;20124;-67
2023/05/16 00:28:55;;;;;;;14.23;3.20;;;;;;;10.72;71.52;101668.63;3614748;39;20054;-66
2023/05/16 00:31:21;;;;;;;17.85;3.53;;;;;;;10.66;70.60;101669.81;3613276;39;20050;-66
2023/05/16 00:33:46;;;;;;;17.98;3.22;;;;;;;10.61;71.00;101671.84;3616325;39;20057;-67
2023/05/16 00:36:12;;;;;;;13.07;3.17;;;;;;;10.57;70.68;101667.56;3614320;39;20066;-66
2023/05/16 00:38:37;;;;;;;12.32;3.22;;;;;;;10.47;70.98;101668.97;3614772;39;20092;-67
2023/05/16 00:41:03;;;;;;;12.00;2.92;;;;;;;10.40;71.43;101660.28;3614298;39;20146;-67
2023/05/16 00:43:29;;;;;;;14.63;3.22;;;;;;;10.36;71.27;101664.94;3614485;39;20047;-66
2023/05/16 00:45:56;;;;;;;12.25;3.03;;;;;;;10.31;72.10;101658.94;3616623;39;20065;-67
2023/05/16 00:48:22;;;;;;;13.38;3.17;;;;;;;9.94;71.69;101601.53;3612867;39;20460;-66
2023/05/16 00:50:49;;;;;;;15.43;3.15;;;;;;;10.25;71.58;101664.56;3614381;39;20386;-67
2023/05/16 00:53:15;;;;;;;12.63;2.78;;;;;;;10.15;71.79;101657.88;3614603;39;20064;-67
2023/05/16 00:55:41;;;;;;;14.75;3.15;;;;;;;10.09;71.70;101663.53;3612871;39;20059;-67
2023/05/16 00:58:08;;;;;;;13.25;3.22;;;;;;;10.06;71.94;101663.69;3612575;39;20126;-67
2023/05/16 01:00:35;;;;;;;12.68;2.95;;;;;;;10.03;71.92;101669.19;3612824;39;20306;-67
2023/05/16 01:03:01;;;;;;;16.10;3.38;;;;;;;9.96;71.81;101669.47;3615519;39;20051;-67
2023/05/16 01:05:28;;;;;;;12.50;3.00;;;;;;;9.94;72.44;101670.47;3613131;39;20063;-67
2023/05/16 01:07:53;;;;;;;16.30;3.42;;;;;;;9.92;72.04;101672.34;3613675;39;20377;-66
2023/05/16 01:10:19;;;;;;;15.43;2.80;;;;;;;9.89;72.13;101672.50;3613475;39;20171;-67
2023/05/16 01:13:17;;;;;;;14.50;3.03;;;;;;;9.81;71.79;101672.84;3614178;39;20051;-67
2023/05/16 01:15:59;;;;;;;12.80;2.70;;;;;;;9.77;72.27;101671.25;3613138;39;20059;-67
2023/05/16 01:18:55;;;;;;;12.48;3.00;;;;;;;9.73;72.21;101677.69;3612131;39;20379;-67
2023/05/16 01:21:58;;;;;;;11.20;2.50;;;;;;;9.69;71.98;101676.94;3593142;39;20051;-67
2023/05/16 01:24:33;;;;;;;13.57;3.33;;;;;;;9.66;72.74;101677.09;3579834;39;20043;-67
2023/05/16 01:27:03;;;;;;;15.32;2.95;;;;;;;9.62;72.63;101674.63;3613262;39;20511;-67
2023/05/16 01:29:29;;;;;;;11.88;2.95;;;;;;;9.61;72.10;101672.84;3613958;39;20081;-68
2023/05/16 01:31:57;;;;;;;12.13;2.58;;;;;;;9.57;72.66;101679.31;3612678;39;20381;-68
2023/05/16 01:34:22;;;;;;;13.63;3.00;;;;;;;9.51;72.70;101684.03;3611857;39;20366;-68
2023/05/16 01:37:16;;;;;;;14.00;2.65;;;;;;;9.41;72.89;101665.69;3613537;39;20059;-68
2023/05/16 01:39:52;;;;;;;11.50;2.95;;;;;;;9.42;72.08;101684.41;3614968;39;20123;-68
2023/05/16 01:42:25;;;;;;;15.45;2.92;;;;;;;9.35;72.94;101677.56;3613202;39;20050;-67
2023/05/16 01:45:19;;;;;;;12.93;2.90;;;;;;;9.21;72.86;101655.81;3615263;39;20107;-67
2023/05/16 01:48:00;;;;;;;12.43;2.50;;;;;;;9.30;72.96;101687.63;3603278;39;20066;-67
2023/05/16 01:50:33;;;;;;;11.13;2.40;;;;;;;9.01;72.58;101640.59;3613895;39;20053;-67
2023/05/16 01:53:09;;;;;;;8.27;2.22;;;;;;;9.25;72.74;101689.63;3616261;39;20058;-67
2023/05/16 01:55:50;;;;;;;16.80;2.95;;;;;;;9.20;72.98;101687.16;3614843;39;20098;-67
2023/05/16 01:58:22;;;;;;;8.88;2.70;;;;;;;8.99;72.95;101656.72;3612982;39;20081;-67
2023/05/16 02:00:48;;;;;;;11.13;2.47;;;;;;;9.22;72.61;101695.13;3612450;39;20061;-67
2023/05/16 02:03:13;;;;;;;13.82;3.25;;;;;;;9.20;72.84;101695.19;3612413;39;20062;-67
2023/05/16 02:05:39;;;;;;;10.23;2.20;;;;;;;9.15;73.26;101699.88;3614176;39;20054;-67
2023/05/16 02:08:05;;;;;;;14.65;2.70;;;;;;;8.78;73.51;101657.59;3613753;39;20047;-68
2023/05/16 02:10:31;;;;;;;11.27;2.53;;;;;;;9.01;73.05;101696.91;3612950;39;20162;-68
2023/05/16 02:12:57;;;;;;;13.38;2.67;;;;;;;9.03;73.70;101711.97;3613309;39;20057;-67
2023/05/16 02:15:22;;;;;;;12.63;2.83;;;;;;;9.00;73.53;101714.78;3611909;39;20051;-67
2023/05/16 02:17:48;;;;;;;14.60;2.83;;;;;;;9.00;73.91;101711.22;3613601;39;20062;-67
2023/05/16 02:20:14;;;;;;;14.65;2.70;;;;;;;8.94;73.36;101701.63;3613572;39;20058;-67
2023/05/16 02:22:41;;;;;;;12.85;3.30;;;;;;;8.97;73.77;101709.53;3612657;39;20899;-67
2023/05/16 02:25:08;;;;;;;14.35;3.20;;;;;;;8.95;73.46;101703.38;3613377;39;20063;-67
2023/05/16 02:27:33;;;;;;;15.07;3.45;;;;;;;8.94;73.80;101706.97;3614894;39;20071;-67
2023/05/16 02:29:59;;;;;;;14.65;2.95;;;;;;;8.91;73.86;101707.13;3617637;39;20062;-67
2023/05/16 02:32:25;;;;;;;9.55;2.38;;;;;;;8.89;73.64;101705.44;3615846;39;20047;-67
2023/05/16 02:34:51;;;;;;;12.10;2.97;;;;;;;8.87;73.48;101710.84;3616751;39;20208;-67
2023/05/16 02:37:16;;;;;;;13.48;2.53;;;;;;;8.86;73.74;101709.13;3613766;39;20058;-66
2023/05/16 02:39:42;;;;;;;11.73;2.75;;;;;;;8.84;73.76;101719.03;3614773;39;20065;-67
2023/05/16 02:42:08;;;;;;;12.93;2.90;;;;;;;8.78;73.44;101703.19;3616955;39;20054;-66
2023/05/16 02:44:33;;;;;;;16.17;2.33;;;;;;;8.79;73.68;101718.34;3617260;39;21141;-67
2023/05/16 02:46:59;;;;;;;14.70;2.80;;;;;;;8.73;74.50;101721.28;3614945;39;20385;-67
2023/05/16 02:49:25;;;;;;;13.00;3.30;;;;;;;8.33;74.36;101653.13;3618499;39;20054;-67
2023/05/16 02:51:51;;;;;;;11.18;2.80;;;;;;;8.71;74.11;101725.81;3617346;39;20058;-67
2023/05/16 02:54:16;;;;;;;15.20;3.03;;;;;;;8.70;74.54;101726.75;3615742;39;20050;-67
2023/05/16 02:56:43;;;;;;;16.17;2.58;;;;;;;8.72;74.53;101738.28;3616413;39;20131;-67
2023/05/16 02:59:10;;;;;;;9.68;2.33;;;;;;;8.73;74.49;101734.69;3615105;39;20063;-68
2023/05/16 03:01:36;;;;;;;10.00;2.75;;;;;;;8.70;74.47;101737.47;3612381;39;20071;-68
2023/05/16 03:04:01;;;;;;;11.43;2.83;;;;;;;8.68;75.06;101736.66;3615254;39;20065;-67
2023/05/16 03:06:27;;;;;;;13.65;3.00;;;;;;;8.62;74.39;101729.72;3612929;39;20122;-69
2023/05/16 03:08:52;;;;;;;16.23;3.10;;;;;;;8.62;74.40;101745.81;3614963;39;20062;-67
2023/05/16 03:11:21;;;;;;;13.20;2.97;;;;;;;8.55;75.42;101739.81;3612003;39;20054;-68
2023/05/16 03:13:47;;;;;;;12.23;3.03;;;;;;;8.63;75.12;101752.03;3614267;39;20094;-68
2023/05/16 03:16:15;;;;;;;10.93;2.80;;;;;;;8.62;75.05;101761.00;3614412;39;20069;-68
2023/05/16 03:18:41;;;;;;;14.18;3.03;;;;;;;8.57;74.75;101759.41;3615050;39;20050;-68
2023/05/16 03:21:06;;;;;;;15.23;3.30;;;;;;;8.51;75.34;101754.28;3614966;39;20051;-68
2023/05/16 03:23:32;;;;;;;13.57;2.67;;;;;;;8.44;74.58;101742.03;3606768;39;20503;-68
2023/05/16 03:25:58;;;;;;;10.27;2.70;;;;;;;8.33;75.30;101728.13;3613668;39;20058;-67
2023/05/16 03:28:24;;;;;;;10.40;3.03;;;;;;;8.33;75.29;101725.47;3612247;39;20054;-67
2023/05/16 03:30:50;;;;;;;15.07;2.85;;;;;;;8.46;75.71;101756.25;3611889;39;20066;-67
2023/05/16 03:33:16;;;;;;;12.13;2.65;;;;;;;8.07;75.63;101691.63;3612147;39;20058;-67
2023/05/16 03:35:42;;;;;;;9.38;2.40;;;;;;;8.39;75.31;101762.78;3612921;39;20047;-67
2023/05/16 03:38:08;;;;;;;12.85;2.95;;;;;;;8.36;76.07;101755.69;3614971;39;20054;-67
2023/05/16 03:40:34;;;;;;;10.23;2.67;;;;;;;8.27;76.02;101745.31;3607298;39;20402;-67
2023/05/16 03:43:00;;;;;;;12.23;2.65;;;;;;;8.31;75.93;101762.16;3612817;39;20050;-68
2023/05/16 03:45:25;;;;;;;15.68;3.38;;;;;;;8.19;76.46;101744.75;3613424;39;20104;-67
2023/05/16 03:47:51;;;;;;;10.43;2.50;;;;;;;8.26;75.94;101773.03;3612755;39;20053;-68
2023/05/16 03:50:17;;;;;;;14.32;2.75;;;;;;;8.24;76.66;101776.69;3614370;39;20058;-68
2023/05/16 03:52:43;;;;;;;13.50;3.10;;;;;;;8.16;76.32;101763.59;3613980;39;20062;-68
2023/05/16 03:55:09;;;;;;;9.60;2.65;;;;;;;8.22;76.69;101778.56;3618130;39;20087;-67
2023/05/16 03:57:37;;;;;;;10.00;2.72;;;;;;;7.86;76.57;101720.06;3617769;39;20696;-68
2023/05/16 04:00:06;;;;;;;11.85;3.03;;;;;;;8.19;76.65;101779.56;3615285;39;20043;-65
2023/05/16 04:02:32;;;;;;;11.88;3.05;;;;;;;8.12;76.76;101768.19;3613785;39;20109;-65
2023/05/16 04:04:58;;;;;;;12.65;3.08;;;;;;;8.18;76.91;101787.63;3612919;39;20058;-66
2023/05/16 04:07:24;;;;;;;11.10;3.00;;;;;;;8.18;76.85;101782.28;3614159;39;20313;-65
2023/05/16 04:09:51;;;;;;;17.27;3.40;;;;;;;8.17;77.11;101784.09;3614016;39;20066;-65
2023/05/16 04:12:16;;;;;;;15.05;3.15;;;;;;;8.21;77.41;101790.19;3610777;39;20067;-65
2023/05/16 04:14:42;;;;;;;15.63;3.92;;;;;;;8.17;76.93;101786.75;3615601;39;20389;-65
2023/05/16 04:17:08;;;;;;;16.33;3.53;;;;;;;8.16;76.46;101786.84;3613137;39;20067;-66
2023/05/16 04:19:34;;;;;;;14.32;3.30;;;;;;;8.11;76.74;101787.84;3610789;39;20098;-66
2023/05/16 04:21:59;;;;;;;11.02;2.97;;;;;;;8.10;77.01;101786.13;3614751;39;20405;-66
2023/05/16 04:24:27;;;;;;;8.98;2.63;;;;;;;8.13;77.23;101794.03;3616219;39;20393;-66
2023/05/16 04:26:54;;;;;;;9.75;2.65;;;;;;;8.09;77.08;101795.09;3617279;39;20058;-66
2023/05/16 04:29:20;;;;;;;12.38;2.85;;;;;;;8.14;77.34;101803.81;3606862;39;20063;-66
2023/05/16 04:31:47;;;;;;;15.65;3.20;;;;;;;8.14;76.82;101794.91;3614609;39;20165;-66
2023/05/16 04:34:14;;;;;;;11.68;3.03;;;;;;;8.16;77.24;101805.59;3613571;39;20071;-66
2023/05/16 04:36:39;;;;;;;13.38;3.30;;;;;;;8.17;76.99;101812.69;3613746;39;20061;-66
2023/05/16 04:39:06;;;;;;;16.17;3.20;;;;;;;8.19;77.27;101816.19;3613661;39;20127;-65
2023/05/16 04:41:32;;;;;;;12.57;2.85;;;;;;;7.87;77.17;101756.63;3612941;39;20393;-65
2023/05/16 04:44:02;;;;;;;10.10;2.72;;;;;;;8.04;77.32;101785.47;3616182;39;20126;-66
2023/05/16 04:46:28;;;;;;;16.17;3.05;;;;;;;8.23;77.29;101817.81;3613160;39;20058;-66
2023/05/16 04:48:54;;;;;;;13.15;3.08;;;;;;;8.24;76.57;101819.56;3614529;39;20463;-66
2023/05/16 04:51:20;;;;;;;13.00;2.90;;;;;;;8.29;77.50;101820.28;3616275;39;20160;-66
2023/05/16 04:53:46;;;;;;;16.50;3.30;;;;;;;8.30;77.29;101824.69;3616132;39;20043;-66
2023/05/16 04:56:12;;;;;;;12.73;2.75;;;;;;;8.34;77.25;101834.34;3616804;39;20416;-66
2023/05/16 04:58:37;;;;;;;15.38;2.92;;;;;;;8.32;77.00;101822.84;3616598;39;20059;-66
2023/05/16 05:01:03;;;;;;;11.90;2.97;;;;;;;8.38;76.61;101833.38;3615993;39;20057;-66
2023/05/16 05:03:29;;;;;;;16.42;3.45;;;;;;;8.31;76.77;101821.09;3614957;39;20165;-65
2023/05/16 05:05:55;;;;;;;12.13;2.58;;;;;;;8.45;77.27;101834.88;3617464;39;20050;-67
2023/05/16 05:08:21;;;;;;;10.27;2.47;;;;;;;8.50;77.01;101842.75;3617979;39;20090;-66
2023/05/16 05:10:47;;;;;;;11.45;3.28;;;;;;;8.55;77.19;101830.06;3617702;39;22175;-66
2023/05/16 05:13:13;;;;;;;9.05;3.00;;;;;;;8.57;76.48;101821.03;3616829;39;20046;-66
2023/05/16 05:15:38;;;;;;;14.73;2.88;;;;;;;8.65;76.82;101830.59;3616508;39;20584;-66
2023/05/16 05:18:04;;;;;;;11.70;2.78;;;;;;;8.70;76.45;101829.47;3611758;39;20062;-66
2023/05/16 05:20:30;;;;;;;13.07;2.90;;;;;;;8.50;76.03;101787.38;3616713;39;20063;-66
2023/05/16 05:22:55;;;;;;;14.40;3.17;;;;;;;8.79;76.03;101836.31;3615815;39;20054;-66
2023/05/16 05:25:21;;;;;;;13.27;2.88;;;;;;;8.87;76.18;101836.00;3615203;39;20426;-66
2023/05/16 05:27:47;;;;;;;8.50;2.85;;;;;;;8.92;74.68;101845.63;3615418;39;20051;-67
2023/05/16 05:30:13;;;;;;;11.30;2.53;;;;;;;8.99;74.88;101847.13;3615396;39;20466;-66
2023/05/16 05:32:38;;;;;;;12.38;2.72;;;;;;;9.06;74.57;101843.25;3616073;39;20090;-65
2023/05/16 05:35:05;;;;;;;11.68;2.60;;;;;;;9.13;74.03;101848.38;3616191;39;20138;-65
2023/05/16 05:37:31;;;;;;;10.00;2.55;;;;;;;9.22;74.15;101850.72;3617381;39;20186;-65
2023/05/16 05:39:56;;;;;;;8.27;2.20;;;;;;;9.28;73.25;101854.03;3620374;39;20385;-66
2023/05/16 05:42:22;;;;;;;11.65;2.85;;;;;;;9.33;73.37;101861.03;3615384;39;20046;-65
2023/05/16 05:44:47;;;;;;;6.82;2.47;;;;;;;9.33;73.28;101845.81;3617948;39;20056;-66
2023/05/16 05:47:14;;;;;;;11.35;2.70;;;;;;;9.47;72.71;101858.66;3616624;39;20051;-65
2023/05/16 05:49:40;;;;;;;11.82;3.13;;;;;;;9.53;71.76;101859.28;3605898;39;20104;-66
2023/05/16 05:52:06;;;;;;;9.23;2.30;;;;;;;9.61;71.23;101856.28;3616996;39;20393;-66
2023/05/16 05:54:32;;;;;;;10.60;2.70;;;;;;;9.69;70.58;101862.19;3612364;39;20054;-66
2023/05/16 05:56:58;;;;;;;11.23;2.67;;;;;;;9.77;70.24;101865.44;3615963;39;20415;-66
2023/05/16 05:59:23;;;;;;;8.48;2.38;;;;;;;9.79;70.93;101857.31;3616348;39;20050;-66
2023/05/16 06:01:51;;;;;;;15.18;2.88;;;;;;;9.97;69.69;101875.34;3614690;39;20410;-66
2023/05/16 06:04:20;;;;;;;9.00;2.78;;;;;;;10.09;69.85;101873.09;3617844;39;20115;-66
2023/05/16 06:06:46;;;;;;;10.75;2.88;;;;;;;10.14;69.64;101871.06;3616310;39;20050;-66
2023/05/16 06:09:13;;;;;;;10.63;2.63;;;;;;;10.26;68.87;101880.41;3615518;39;20062;-65
2023/05/16 06:11:40;;;;;;;12.23;2.80;;;;;;;10.37;69.50;101881.72;3613014;39;20062;-66
2023/05/16 06:14:06;;;;;;;10.25;2.83;;;;;;;10.45;68.08;101876.88;3613139;39;20422;-67
2023/05/16 06:16:32;;;;;;;12.60;2.60;;;;;;;10.65;69.12;101877.78;3607959;39;20043;-66
2023/05/16 06:18:58;;;;;;;8.23;2.35;;;;;;;10.74;67.19;101882.75;3616669;39;20058;-66
2023/05/16 06:21:23;;;;;;;11.57;2.88;;;;;;;10.91;67.40;101890.94;3605078;39;20055;-66
2023/05/16 06:23:49;;;;;;;10.95;2.92;;;;;;;10.96;65.22;101882.63;3613071;39;20439;-66
2023/05/16 06:26:15;;;;;;;7.63;2.38;;;;;;;11.11;65.43;101889.13;3614057;39;20061;-67
2023/05/16 06:28:40;;;;;;;9.05;2.45;;;;;;;11.30;64.78;101890.00;3614088;39;20050;-67
2023/05/16 06:31:06;;;;;;;12.00;2.67;;;;;;;11.48;64.37;101890.03;3618313;39;20051;-68
2023/05/16 06:33:31;;;;;;;10.50;2.90;;;;;;;11.70;63.47;101901.50;3616087;39;20369;-68
2023/05/16 06:35:57;;;;;;;14.02;2.90;;;;;;;11.87;62.94;101902.56;3614797;39;20070;-68
2023/05/16 06:38:23;;;;;;;15.98;2.83;;;;;;;11.90;61.32;101897.00;3616815;39;20084;-68
2023/05/16 06:40:49;;;;;;;10.98;2.47;;;;;;;11.93;61.53;101896.84;3612399;39;20062;-67
2023/05/16 06:43:14;;;;;;;11.00;2.47;;;;;;;12.07;61.48;101897.00;3614555;39;20400;-67
2023/05/16 06:45:40;;;;;;;6.82;2.10;;;;;;;12.21;61.26;101902.59;3613560;39;20062;-67
2023/05/16 06:48:07;;;;;;;11.32;2.90;;;;;;;12.41;60.44;101888.06;3614828;39;20069;-67
2023/05/16 06:50:34;;;;;;;11.80;2.22;;;;;;;12.55;59.11;101890.88;3614260;39;21476;-67
2023/05/16 06:53:00;;;;;;;8.65;2.13;;;;;;;12.52;60.00;101895.56;3614994;39;20090;-67
2023/05/16 06:55:26;;;;;;;9.98;2.20;;;;;;;12.52;60.58;101876.69;3617147;39;20042;-67
2023/05/16 06:57:51;;;;;;;11.10;2.63;;;;;;;12.71;59.61;101896.34;3616872;39;20069;-65
2023/05/16 07:00:18;;;;;;;9.15;2.42;;;;;;;12.73;58.43;101897.13;3615996;39;20300;-65
2023/05/16 07:02:43;;;;;;;9.65;2.05;;;;;;;12.84;57.42;101903.78;3614772;39;20059;-65
2023/05/16 07:05:09;;;;;;;7.85;1.92;;;;;;;12.83;56.58;101899.34;3604430;39;20127;-66
2023/05/16 07:07:35;;;;;;;10.20;2.00;;;;;;;12.88;56.30;101903.53;3614748;39;20063;-66
2023/05/16 07:10:01;;;;;;;7.32;2.10;;;;;;;12.86;57.05;101904.56;3616992;39;20458;-67
2023/05/16 07:12:27;;;;;;;9.02;2.10;;;;;;;12.82;56.68;101905.69;3614751;39;20054;-66
2023/05/16 07:14:52;;;;;;;7.97;1.90;;;;;;;12.80;54.94;101902.19;3612370;39;20486;-67
2023/05/16 07:17:18;;;;;;;7.70;1.90;;;;;;;12.92;55.15;101904.25;3610072;39;20062;-67
2023/05/16 07:19:44;;;;;;;8.23;1.75;;;;;;;13.07;54.82;101903.41;3612168;39;20055;-66
2023/05/16 07:22:11;;;;;;;7.35;1.85;;;;;;;13.19;54.89;101897.34;3616504;39;20127;-66
2023/05/16 07:24:36;;;;;;;7.85;2.10;;;;;;;13.31;53.73;101919.22;3613494;39;20316;-67
2023/05/16 07:27:02;;;;;;;6.60;1.80;;;;;;;13.41;53.90;101905.09;3614263;39;20252;-67
2023/05/16 07:29:29;;;;;;;8.95;1.77;;;;;;;13.54;53.31;101901.72;3613227;39;20318;-66
2023/05/16 07:31:54;;;;;;;4.55;1.42;;;;;;;13.63;52.70;101918.25;3617148;39;20086;-66
2023/05/16 07:34:20;;;;;;;7.10;1.52;;;;;;;13.84;52.25;101916.16;3613207;39;20051;-67
2023/05/16 07:36:46;;;;;;;6.10;1.90;;;;;;;13.99;52.02;101916.25;3614509;39;20051;-66
2023/05/16 07:39:11;;;;;;;7.35;1.55;;;;;;;14.23;50.15;101905.78;3614188;39;20055;-65
2023/05/16 07:41:37;;;;;;;4.63;1.35;;;;;;;14.45;49.71;101919.75;3613231;39;20370;-66
2023/05/16 07:44:02;;;;;;;8.18;1.60;;;;;;;14.72;49.75;101902.84;3614561;39;20057;-66
2023/05/16 07:46:28;;;;;;;6.30;1.42;;;;;;;14.94;48.16;101914.06;3615280;39;20273;-65
2023/05/16 07:48:54;;;;;;;6.78;1.65;;;;;;;15.16;47.44;101918.09;3613789;39;20558;-66
2023/05/16 07:51:19;;;;;;;5.43;1.88;;;;;;;15.31;46.65;101917.13;3613236;39;20051;-67
2023/05/16 07:53:45;;;;;;;8.55;1.95;;;;;;;15.47;45.95;101917.88;3612943;39;20054;-67
2023/05/16 07:56:11;;;;;;;6.22;1.67;;;;;;;15.46;46.39;101921.56;3613821;39;20051;-66
2023/05/16 07:58:37;;;;;;;3.67;1.25;;;;;;;15.54;47.31;101924.66;3613055;39;20381;-66
2023/05/16 08:01:03;;;;;;;6.00;1.50;;;;;;;15.60;45.59;101923.34;3616749;39;20058;-66
2023/05/16 08:03:29;;;;;;;3.75;1.42;;;;;;;15.42;46.70;101922.75;3605326;39;20126;-67
2023/05/16 08:05:55;;;;;;;6.57;2.17;;;;;;;15.25;46.38;101922.94;3616041;39;20067;-66
2023/05/16 08:08:20;;;;;;;4.65;1.40;;;;;;;15.14;48.21;101909.22;3605343;39;20055;-66
2023/05/16 08:10:46;;;;;;;5.55;1.67;;;;;;;15.13;48.25;101924.63;3612964;39;20064;-66
2023/05/16 08:13:12;;;;;;;7.15;1.50;;;;;;;15.30;48.15;101926.25;3613437;39;20050;-66
2023/05/16 08:15:37;;;;;;;5.63;1.40;;;;;;;15.28;47.40;101907.34;3612408;39;20385;-66
2023/05/16 08:18:05;;;;;;;6.55;1.23;;;;;;;15.33;46.67;101929.63;3614922;39;20054;-65
2023/05/16 08:20:31;;;;;;;4.07;1.20;;;;;;;15.34;46.80;101919.63;3607335;39;20127;-66
2023/05/16 08:22:57;;;;;;;5.85;1.30;;;;;;;15.51;46.36;101932.97;3613738;39;20055;-65
2023/05/16 08:25:22;;;;;;;5.88;1.42;;;;;;;15.59;46.52;101931.59;3612808;39;20054;-67
2023/05/16 08:27:49;;;;;;;5.22;1.80;;;;;;;15.70;46.83;101921.84;3611643;39;20059;-66
2023/05/16 08:30:15;;;;;;;5.95;1.90;;;;;;;15.92;44.91;101931.25;3614706;39;20054;-66
2023/05/16 08:32:41;;;;;;;7.03;1.40;;;;;;;15.85;45.70;101929.91;3612788;39;20061;-67
2023/05/16 08:35:07;;;;;;;7.65;1.88;;;;;;;15.69;45.13;101932.78;3614907;39;20108;-66
2023/05/16 08:37:33;;;;;;;4.80;1.50;;;;;;;15.50;46.74;101922.22;3613437;39;20362;-67
2023/05/16 08:39:59;;;;;;;4.53;1.08;;;;;;;15.69;46.66;101928.22;3613022;39;20126;-65
2023/05/16 08:42:26;;;;;;;5.78;1.50;;;;;;;16.10;46.33;101923.72;3615522;39;20401;-66
2023/05/16 08:44:52;;;;;;;5.43;1.75;;;;;;;16.35;42.86;101915.66;3614761;39;20119;-66
2023/05/16 08:47:20;;;;;;;2.83;1.38;;;;;;;16.59;45.21;101914.94;3616611;39;20338;-67
2023/05/16 08:49:52;;;;;;;6.93;1.50;;;;;;;16.79;45.00;101914.44;3615715;39;20116;-66
2023/05/16 08:52:27;;;;;;;6.47;1.50;;;;;;;16.67;43.17;101912.53;3614760;39;20047;-65
2023/05/16 08:54:55;;;;;;;4.65;1.40;;;;;;;16.27;44.42;101918.03;3614404;39;20059;-66
2023/05/16 08:57:21;;;;;;;6.47;1.50;;;;;;;16.30;45.96;101915.13;3616789;39;20120;-66
2023/05/16 08:59:47;;;;;;;4.18;1.80;;;;;;;16.48;44.27;101921.97;3614665;39;20059;-66
2023/05/16 09:02:13;;;;;;;3.90;1.40;;;;;;;16.51;45.93;101873.88;3614599;39;20087;-66
2023/05/16 09:04:42;;;;;;;5.90;1.70;;;;;;;17.06;45.21;101910.72;3614412;39;20043;-66
2023/05/16 09:07:07;;;;;;;4.65;1.40;;;;;;;17.27;44.15;101914.59;3614890;39;20055;-66
2023/05/16 09:09:33;;;;;;;4.80;1.48;;;;;;;17.60;42.55;101913.09;3615419;39;20069;-67
2023/05/16 09:11:59;;;;;;;6.68;1.45;;;;;;;17.82;42.39;101915.09;3615888;39;20100;-66
2023/05/16 09:14:24;;;;;;;5.30;1.70;;;;;;;18.08;42.38;101921.31;3615781;39;20063;-66
2023/05/16 09:17:05;;;;;;;4.53;1.60;;;;;;;17.79;42.13;101915.34;3619381;39;20077;-66
2023/05/16 09:19:51;;;;;;;7.03;1.52;;;;;;;17.30;41.31;101908.94;3615825;39;20067;-66
2023/05/16 09:22:17;;;;;;;3.67;1.42;;;;;;;17.32;42.96;101917.00;3616582;39;20065;-66
2023/05/16 09:24:45;;;;;;;3.97;1.55;;;;;;;17.38;41.96;101914.69;3615607;39;20416;-67
2023/05/16 09:27:15;;;;;;;5.70;1.48;;;;;;;17.37;41.34;101864.00;3615688;39;20100;-66
2023/05/16 09:29:49;;;;;;;4.03;1.60;;;;;;;17.82;40.67;101909.66;3618858;39;20054;-66
2023/05/16 09:32:16;;;;;;;4.00;1.02;;;;;;;17.96;41.03;101914.09;3615154;39;20051;-66
2023/05/16 09:34:50;;;;;;;6.80;1.52;;;;;;;18.11;39.75;101902.03;3614778;39;20094;-66
2023/05/16 09:37:16;;;;;;;3.47;1.17;;;;;;;18.51;39.66;101918.00;3615987;39;20050;-66
2023/05/16 09:39:50;;;;;;;4.93;1.30;;;;;;;18.67;38.97;101902.19;3615512;39;20063;-66
2023/05/16 09:42:18;;;;;;;3.92;1.10;;;;;;;18.70;37.81;101910.13;3617981;39;20094;-67
2023/05/16 09:44:53;;;;;;;5.15;1.30;;;;;;;18.71;37.99;101898.25;3615610;39;20062;-66
2023/05/16 09:47:21;;;;;;;5.75;1.48;;;;;;;19.04;39.13;101921.09;3616732;39;20059;-66
2023/05/16 09:49:52;;;;;;;3.95;1.20;;;;;;;18.93;38.30;101910.19;3615498;39;20051;-67
2023/05/16 09:52:18;;;;;;;5.78;1.48;;;;;;;18.62;38.76;101923.50;3615179;39;20047;-66
2023/05/16 09:54:49;;;;;;;5.88;1.35;;;;;;;17.88;39.22;101913.78;3615185;39;20070;-65
2023/05/16 09:57:20;;;;;;;2.35;1.00;;;;;;;17.33;40.87;101916.88;3617995;39;20404;-66
2023/05/16 09:59:46;;;;;;;4.00;1.58;;;;;;;16.97;41.61;101923.13;3615679;39;20352;-66
2023/05/16 10:02:13;;;;;;;3.05;1.13;;;;;;;16.63;42.98;101924.59;3613830;39;20094;-66
2023/05/16 10:04:40;;;;;;;5.85;1.40;;;;;;;16.21;42.83;101910.31;3615097;39;20047;-65
2023/05/16 10:07:08;;;;;;;3.33;1.25;;;;;;;16.59;43.55;101923.94;3615058;39;20053;-65
2023/05/16 10:09:35;;;;;;;7.18;1.73;;;;;;;16.69;44.45;101868.03;3615605;39;20054;-67
2023/05/16 10:12:07;;;;;;;5.07;1.27;;;;;;;17.31;41.30;101916.09;3614462;39;20343;-66
2023/05/16 10:14:36;;;;;;;4.90;1.35;;;;;;;17.29;39.67;101919.94;3614524;39;20058;-67
2023/05/16 10:17:07;;;;;;;4.50;1.33;;;;;;;17.55;41.23;101918.88;3615379;39;20055;-66
2023/05/16 10:19:38;;;;;;;3.30;1.10;;;;;;;17.80;37.79;101911.66;3615330;39;20424;-65
2023/05/16 10:22:06;;;;;;;5.20;1.25;;;;;;;18.00;36.74;101881.06;3617777;39;20062;-67
2023/05/16 10:24:59;;;;;;;3.10;1.10;;;;;;;18.53;36.50;101921.47;3616017;39;20126;-66
2023/05/16 10:27:26;;;;;;;;;;;;;;;18.79;36.21;101914.88;3617757;39;20059;-67
2023/05/16 10:29:54;;;;;;;4.80;1.20;;;;;;;19.10;36.63;101908.84;3613718;39;20018;-67
2023/05/16 10:32:23;;;;;;;3.10;1.20;;;;;;;19.19;37.30;101914.41;3614837;39;20381;-66
2023/05/16 10:34:49;;;;;;;4.05;1.20;;;;;;;18.79;37.15;101912.16;3613483;39;20038;-67
2023/05/16 10:37:15;;;;;;;4.88;1.25;;;;;;;18.30;37.94;101915.97;3616141;39;20047;-65
2023/05/16 10:39:42;;;;;;;2.65;0.98;;;;;;;17.89;37.32;101915.50;3615669;39;20084;-66
2023/05/16 10:42:08;;;;;;;3.65;1.10;;;;;;;17.85;38.55;101912.16;3616588;39;20124;-66
2023/05/16 10:44:37;;;;;;;3.47;1.23;;;;;;;18.18;38.12;101911.47;3616552;39;20051;-66
2023/05/16 10:47:04;;;;;;;4.30;1.33;;;;;;;18.72;35.34;101904.56;3615774;39;20521;-67
2023/05/16 10:49:30;;;;;;;5.15;1.33;;;;;;;18.97;36.49;101911.69;3616465;39;20054;-67
2023/05/16 10:52:12;;;;;;;2.50;1.08;;;;;;;18.92;35.27;101913.91;3616744;39;20409;-66
2023/05/16 10:54:41;;;;;;;4.05;1.55;;;;;;;18.76;35.23;101911.53;3618721;39;20050;-66
2023/05/16 10:57:16;;;;;;;3.17;1.08;;;;;;;18.92;35.17;101903.00;3614953;39;20050;-67
2023/05/16 10:59:45;;;;;;;2.83;1.35;;;;;;;19.23;36.00;101915.88;3617079;39;20454;-66
2023/05/16 11:02:31;;;;;;;5.30;1.55;;;;;;;19.40;35.48;101908.19;3616587;39;20051;-65
2023/05/16 11:05:00;;;;;;;6.35;1.17;;;;;;;19.70;37.23;101913.88;3613203;39;20382;-67
2023/05/16 11:07:35;;;;;;;6.53;1.60;;;;;;;19.85;34.84;101908.13;3614371;39;20067;-66
2023/05/16 11:10:14;;;;;;;7.13;1.73;;;;;;;19.18;35.59;101907.22;3613578;39;20574;-65
2023/05/16 11:12:50;;;;;;;7.75;1.83;;;;;;;18.70;36.74;101912.84;3613276;39;20339;-66
2023/05/16 11:15:27;;;;;;;5.40;1.73;;;;;;;18.86;37.68;101917.97;3613425;39;20051;-65
2023/05/16 11:18:16;;;;;;;4.93;1.50;;;;;;;19.03;35.84;101875.78;3614490;39;20415;-66
2023/05/16 11:20:42;;;;;;;7.53;1.98;;;;;;;19.47;36.28;101914.88;3614007;39;20375;-65
2023/05/16 11:23:23;;;;;;;6.97;1.60;;;;;;;19.91;36.37;101918.53;3613450;39;20047;-66
2023/05/16 11:25:56;;;;;;;6.45;1.50;;;;;;;20.06;34.64;101911.78;3613416;39;20061;-66
2023/05/16 11:28:25;;;;;;;6.15;1.85;;;;;;;19.81;35.04;101882.09;3618823;39;20046;-66